createdAt,value
2022-09-10T00:01:55.373Z,464.75
2022-09-10T00:07:27.352Z,464.23
2022-09-10T00:12:58.872Z,464.40
2022-09-10T00:18:31.042Z,464.05
2022-09-10T00:24:02.180Z,464.05
2022-09-10T00:29:33.483Z,463.70
2022-09-10T00:35:05.238Z,463.88
2022-09-10T00:40:36.499Z,464.05
2022-09-10T00:46:07.765Z,464.57
2022-09-10T00:51:39.321Z,465.01
2022-09-10T01:02:40.438Z,465.53
2022-09-10T01:08:12.181Z,465.36
2022-09-10T01:13:43.776Z,465.53
2022-09-10T01:19:15.553Z,466.05
2022-09-10T01:24:47.443Z,466.58
2022-09-10T01:35:48.458Z,466.92
2022-09-10T01:41:19.881Z,466.92
2022-09-10T01:46:51.021Z,467.27
2022-09-10T01:52:22.369Z,467.80
2022-09-10T01:57:53.819Z,468.14
2022-09-10T02:03:25.505Z,468.49
2022-09-10T02:08:57.394Z,468.67
2022-09-10T02:14:29.056Z,468.84
2022-09-10T02:20:00.771Z,469.10
2022-09-10T02:25:32.609Z,469.45
2022-09-10T02:31:04.305Z,469.80
2022-09-10T02:36:35.722Z,469.80
2022-09-10T02:42:07.464Z,469.97
2022-09-10T02:53:08.928Z,469.80
2022-09-10T02:58:40.368Z,469.80
2022-09-10T03:04:12.319Z,470.15
2022-09-10T03:09:43.660Z,470.50
2022-09-10T03:15:15.537Z,470.50
2022-09-10T03:20:46.987Z,470.84
2022-09-10T03:26:18.539Z,470.84
2022-09-10T03:31:50.124Z,470.67
2022-09-10T03:37:21.479Z,470.50
2022-09-10T03:42:55.142Z,470.50
2022-09-10T03:48:26.885Z,469.97
2022-09-10T03:53:58.474Z,469.80
2022-09-10T03:59:30.329Z,469.97
2022-09-10T04:05:01.768Z,469.97
2022-09-10T04:10:33.810Z,470.15
2022-09-10T04:16:05.476Z,469.97
2022-09-10T04:21:37.186Z,469.80
2022-09-10T04:27:09.165Z,469.80
2022-09-10T04:32:40.796Z,469.80
2022-09-10T04:38:12.610Z,469.80
2022-09-10T04:43:44.558Z,469.97
2022-09-10T04:51:36.813Z,469.10
2022-09-10T05:02:37.777Z,469.28
2022-09-10T05:08:09.484Z,469.10
2022-09-10T05:13:41.072Z,468.84
2022-09-10T05:19:12.858Z,468.67
2022-09-10T05:21:35.329Z,468.49
2022-09-10T05:27:06.973Z,468.49
2022-09-10T05:32:38.398Z,467.80
2022-09-10T05:38:11.190Z,467.80
2022-09-10T05:43:42.900Z,467.27
2022-09-10T05:49:14.545Z,467.10
2022-09-10T05:54:45.860Z,466.75
2022-09-10T06:00:17.357Z,466.40
2022-09-10T06:11:18.350Z,465.71
2022-09-10T06:16:50.163Z,465.01
2022-09-10T06:22:21.986Z,464.57
2022-09-10T06:27:53.554Z,464.05
2022-09-10T06:33:25.348Z,463.53
2022-09-10T06:38:57.287Z,463.01
2022-09-10T06:44:28.836Z,462.83
2022-09-10T06:50:00.628Z,462.66
2022-09-10T06:55:32.257Z,462.48
2022-09-10T07:01:04.332Z,462.48
2022-09-10T07:06:35.894Z,462.66
2022-09-10T07:12:07.701Z,462.66
2022-09-10T07:17:39.546Z,462.83
2022-09-10T07:23:12.850Z,462.31
2022-09-10T07:28:44.121Z,461.96
2022-09-10T07:34:15.637Z,461.79
2022-09-10T07:39:49.500Z,461.61
2022-09-10T07:45:21.486Z,460.74
2022-09-10T07:50:53.201Z,461.44
2022-09-10T08:01:54.408Z,460.13
2022-09-10T08:07:25.573Z,459.61
2022-09-10T08:18:28.798Z,459.09
2022-09-10T08:24:00.538Z,458.92
2022-09-10T08:29:31.951Z,458.57
2022-09-10T08:35:03.847Z,458.22
2022-09-10T08:40:35.627Z,457.87
2022-09-10T08:46:06.976Z,457.70
2022-09-10T08:51:38.550Z,457.17
2022-09-10T08:57:10.244Z,456.83
2022-09-10T09:02:49.847Z,456.65
2022-09-10T09:08:13.828Z,456.48
2022-09-10T09:13:45.560Z,456.48
2022-09-10T09:19:17.567Z,456.30
2022-09-10T09:24:49.434Z,456.48
2022-09-10T09:30:20.941Z,456.48
2022-09-10T09:35:52.808Z,457.17
2022-09-10T09:41:24.476Z,457.52
2022-09-10T09:46:56.060Z,457.70
2022-09-10T09:52:27.750Z,458.39
2022-09-10T09:57:59.369Z,458.22
2022-09-10T10:03:30.864Z,458.57
2022-09-10T10:09:02.206Z,459.26
2022-09-10T10:14:33.656Z,459.79
2022-09-10T10:20:05.307Z,459.26
2022-09-10T10:25:37.258Z,459.44
2022-09-10T10:31:08.770Z,459.61
2022-09-10T10:36:40.163Z,460.13
2022-09-10T10:42:11.843Z,460.57
2022-09-10T10:53:14.995Z,460.22
2022-09-10T11:04:16.358Z,460.57
2022-09-10T11:09:53.643Z,461.44
2022-09-10T11:15:25.033Z,461.44
2022-09-10T11:20:57.024Z,461.79
2022-09-10T11:26:28.309Z,461.96
2022-09-10T11:31:59.681Z,462.14
2022-09-10T11:37:31.114Z,462.31
2022-09-10T11:43:02.685Z,462.83
2022-09-10T11:48:34.422Z,463.01
2022-09-10T11:54:06.392Z,463.01
2022-09-10T11:59:38.086Z,463.35
2022-09-10T12:05:09.531Z,463.01
2022-09-10T12:10:41.077Z,463.35
2022-09-10T12:16:12.718Z,463.88
2022-09-10T12:21:44.007Z,464.40
2022-09-10T12:27:15.424Z,464.23
2022-09-10T12:32:47.451Z,464.23
2022-09-10T12:38:18.947Z,464.75
2022-09-10T12:43:50.401Z,465.01
2022-09-10T12:49:22.272Z,465.18
2022-09-10T12:54:54.076Z,465.53
2022-09-10T13:00:26.652Z,465.53
2022-09-10T13:05:58.300Z,465.88
2022-09-10T13:11:29.924Z,466.40
2022-09-10T13:17:01.632Z,466.23
2022-09-10T13:28:07.102Z,466.23
2022-09-10T13:33:38.779Z,466.40
2022-09-10T13:39:10.420Z,466.75
2022-09-10T13:44:42.484Z,467.27
2022-09-10T13:50:14.044Z,467.45
2022-09-10T13:55:45.517Z,468.32
2022-09-10T14:01:17.369Z,468.32
2022-09-10T14:06:49.060Z,468.14
2022-09-10T14:12:20.840Z,468.67
2022-09-10T14:17:52.657Z,469.10
2022-09-10T14:25:45.946Z,470.15
2022-09-10T14:31:17.485Z,470.50
2022-09-10T14:36:49.170Z,470.32
2022-09-10T14:42:20.888Z,470.67
2022-09-10T14:47:52.168Z,470.32
2022-09-10T14:53:23.443Z,470.50
2022-09-10T14:58:55.133Z,470.50
2022-09-10T15:04:26.934Z,469.62
2022-09-10T15:09:58.547Z,469.80
2022-09-10T15:15:29.917Z,469.28
2022-09-10T15:21:01.474Z,468.14
2022-09-10T15:26:32.963Z,466.75
2022-09-10T15:37:34.178Z,465.53
2022-09-10T15:43:05.866Z,466.05
2022-09-10T15:48:37.743Z,466.05
2022-09-10T15:54:09.425Z,465.71
2022-09-10T15:59:40.839Z,465.71
2022-09-10T16:05:12.477Z,465.53
2022-09-10T16:10:44.163Z,465.88
2022-09-10T16:16:16.030Z,465.71
2022-09-10T16:21:47.679Z,465.88
2022-09-10T16:27:18.889Z,465.71
2022-09-10T16:32:50.304Z,465.36
2022-09-10T16:38:21.471Z,465.36
2022-09-10T16:43:53.173Z,465.18
2022-09-10T16:49:24.716Z,465.01
2022-09-10T16:54:56.237Z,465.18
2022-09-10T17:00:28.014Z,465.18
2022-09-10T17:05:59.382Z,465.18
2022-09-10T17:11:31.014Z,465.01
2022-09-10T17:17:02.586Z,464.83
2022-09-10T17:22:33.980Z,465.01
2022-09-10T17:28:05.311Z,465.36
2022-09-10T17:33:36.942Z,465.18
2022-09-10T17:39:08.230Z,465.53
2022-09-10T17:44:39.812Z,465.53
2022-09-10T17:50:11.244Z,465.18
2022-09-10T17:55:42.865Z,464.83
2022-09-10T18:01:14.435Z,464.75
2022-09-10T18:06:50.185Z,464.05
2022-09-10T18:12:17.275Z,463.53
2022-09-10T18:17:48.846Z,463.18
2022-09-10T18:23:20.059Z,462.83
2022-09-10T18:28:51.569Z,462.48
2022-09-10T18:34:23.631Z,461.96
2022-09-10T18:39:55.238Z,461.61
2022-09-10T18:45:26.967Z,460.57
2022-09-10T18:50:59.117Z,459.96
2022-09-10T18:56:30.487Z,459.09
2022-09-10T19:02:02.009Z,458.39
2022-09-10T19:07:33.559Z,458.22
2022-09-10T19:13:04.791Z,457.87
2022-09-10T19:18:36.777Z,457.00
2022-09-10T19:24:08.509Z,455.78
2022-09-10T19:35:11.773Z,455.17
2022-09-10T19:40:43.062Z,455.78
2022-09-10T19:46:14.523Z,455.96
2022-09-10T19:51:45.978Z,455.96
2022-09-10T19:57:17.612Z,456.30
2022-09-10T20:02:49.086Z,456.48
2022-09-10T20:08:20.778Z,456.30
2022-09-10T20:13:52.325Z,456.48
2022-09-10T20:19:24.083Z,455.96
2022-09-10T20:30:24.921Z,455.78
2022-09-10T20:35:56.655Z,455.78
2022-09-10T20:41:28.514Z,455.70
2022-09-10T20:47:00.186Z,455.78
2022-09-10T20:52:31.771Z,455.96
2022-09-10T20:58:03.569Z,455.78
2022-09-10T21:03:35.143Z,455.70
2022-09-10T21:09:06.710Z,455.52
2022-09-10T21:14:38.036Z,455.35
2022-09-10T21:20:10.227Z,455.17
2022-09-10T21:25:41.816Z,455.17
2022-09-10T21:31:13.273Z,455.00
2022-09-10T21:36:44.588Z,455.00
2022-09-10T21:42:16.236Z,454.65
2022-09-10T21:47:47.668Z,454.30
2022-09-10T21:53:19.311Z,453.96
2022-09-10T21:58:50.578Z,453.78
2022-09-10T22:04:23.251Z,453.43
2022-09-10T22:09:53.680Z,453.26
2022-09-10T22:15:24.884Z,453.78
2022-09-10T22:20:56.658Z,453.78
2022-09-10T22:26:27.930Z,453.61
2022-09-10T22:31:59.424Z,453.96
2022-09-10T22:37:30.675Z,454.13
2022-09-10T22:43:02.006Z,454.48
2022-09-10T22:48:33.708Z,454.30
2022-09-10T22:54:05.229Z,454.48
2022-09-10T22:59:36.802Z,454.48
2022-09-10T23:05:08.581Z,454.48
2022-09-10T23:10:40.334Z,454.30
2022-09-10T23:16:11.731Z,454.13
2022-09-10T23:21:43.681Z,454.48
2022-09-10T23:27:14.962Z,454.13
2022-09-10T23:32:46.305Z,453.61
2022-09-10T23:38:17.985Z,453.43
2022-09-10T23:43:49.331Z,453.61
2022-09-10T23:51:33.948Z,454.30
2022-09-10T23:57:05.531Z,454.13
